sensor_id;sensor_type;location;lat;lon;timestamp;P1;durP1;ratioP1;P2;durP2;ratioP2
36441;SDS011;64346;50.820;16.274;2022-10-15T00:01:27;31.70;;;18.70;;
36441;SDS011;64346;50.820;16.274;2022-10-15T00:03:55;28.45;;;17.35;;
36441;SDS011;64346;50.820;16.274;2022-10-15T00:06:22;33.40;;;18.08;;
36441;SDS011;64346;50.820;16.274;2022-10-15T00:08:49;31.05;;;17.55;;
36441;SDS011;64346;50.820;16.274;2022-10-15T00:11:18;29.55;;;17.90;;
36441;SDS011;64346;50.820;16.274;2022-10-15T00:13:47;31.48;;;19.08;;
36441;SDS011;64346;50.820;16.274;2022-10-15T00:16:16;30.10;;;18.45;;
36441;SDS011;64346;50.820;16.274;2022-10-15T00:18:46;28.17;;;17.58;;
36441;SDS011;64346;50.820;16.274;2022-10-15T00:21:14;32.97;;;18.85;;
36441;SDS011;64346;50.820;16.274;2022-10-15T00:23:45;33.45;;;19.08;;
36441;SDS011;64346;50.820;16.274;2022-10-15T00:26:17;34.08;;;18.92;;
36441;SDS011;64346;50.820;16.274;2022-10-15T00:28:50;28.42;;;18.52;;
36441;SDS011;64346;50.820;16.274;2022-10-15T00:31:19;30.45;;;18.63;;
36441;SDS011;64346;50.820;16.274;2022-10-15T00:33:48;30.80;;;18.50;;
36441;SDS011;64346;50.820;16.274;2022-10-15T00:36:17;32.15;;;19.83;;
36441;SDS011;64346;50.820;16.274;2022-10-15T00:38:47;32.08;;;18.63;;
36441;SDS011;64346;50.820;16.274;2022-10-15T00:41:24;30.80;;;18.27;;
36441;SDS011;64346;50.820;16.274;2022-10-15T00:43:54;32.83;;;19.13;;
36441;SDS011;64346;50.820;16.274;2022-10-15T00:46:33;31.83;;;18.25;;
36441;SDS011;64346;50.820;16.274;2022-10-15T00:49:20;35.10;;;19.40;;
36441;SDS011;64346;50.820;16.274;2022-10-15T00:54:21;29.10;;;17.02;;
36441;SDS011;64346;50.820;16.274;2022-10-15T00:56:52;33.80;;;18.70;;
36441;SDS011;64346;50.820;16.274;2022-10-15T00:59:21;31.48;;;18.40;;
36441;SDS011;64346;50.820;16.274;2022-10-15T01:01:51;33.42;;;19.98;;
36441;SDS011;64346;50.820;16.274;2022-10-15T01:04:19;34.55;;;20.80;;
36441;SDS011;64346;50.820;16.274;2022-10-15T01:06:52;36.50;;;19.88;;
36441;SDS011;64346;50.820;16.274;2022-10-15T01:09:20;34.13;;;21.33;;
36441;SDS011;64346;50.820;16.274;2022-10-15T01:11:48;39.03;;;23.30;;
36441;SDS011;64346;50.820;16.274;2022-10-15T01:25:54;33.63;;;21.30;;
36441;SDS011;64346;50.820;16.274;2022-10-15T01:29:00;39.30;;;21.65;;
36441;SDS011;64346;50.820;16.274;2022-10-15T01:42:47;37.95;;;22.00;;
36441;SDS011;64346;50.820;16.274;2022-10-15T01:45:21;36.58;;;21.23;;
36441;SDS011;64346;50.820;16.274;2022-10-15T01:48:08;39.78;;;22.25;;
36441;SDS011;64346;50.820;16.274;2022-10-15T01:50:39;39.50;;;23.08;;
36441;SDS011;64346;50.820;16.274;2022-10-15T01:53:14;39.55;;;24.25;;
36441;SDS011;64346;50.820;16.274;2022-10-15T01:55:45;41.60;;;23.00;;
36441;SDS011;64346;50.820;16.274;2022-10-15T01:58:14;44.08;;;25.83;;
36441;SDS011;64346;50.820;16.274;2022-10-15T02:00:43;45.15;;;25.77;;
36441;SDS011;64346;50.820;16.274;2022-10-15T02:03:13;42.53;;;24.67;;
36441;SDS011;64346;50.820;16.274;2022-10-15T02:05:47;41.28;;;23.95;;
36441;SDS011;64346;50.820;16.274;2022-10-15T02:11:11;41.97;;;24.20;;
36441;SDS011;64346;50.820;16.274;2022-10-15T02:13:51;44.47;;;26.25;;
36441;SDS011;64346;50.820;16.274;2022-10-15T02:21:46;43.30;;;24.33;;
36441;SDS011;64346;50.820;16.274;2022-10-15T02:24:20;44.75;;;25.65;;
36441;SDS011;64346;50.820;16.274;2022-10-15T02:26:51;44.13;;;24.88;;
36441;SDS011;64346;50.820;16.274;2022-10-15T02:29:21;45.90;;;26.08;;
36441;SDS011;64346;50.820;16.274;2022-10-15T02:31:51;50.03;;;26.90;;
36441;SDS011;64346;50.820;16.274;2022-10-15T02:34:24;44.63;;;26.55;;
36441;SDS011;64346;50.820;16.274;2022-10-15T02:36:56;48.55;;;25.98;;
36441;SDS011;64346;50.820;16.274;2022-10-15T02:39:24;44.78;;;25.92;;
36441;SDS011;64346;50.820;16.274;2022-10-15T02:41:51;45.60;;;26.15;;
36441;SDS011;64346;50.820;16.274;2022-10-15T02:44:20;47.75;;;27.58;;
36441;SDS011;64346;50.820;16.274;2022-10-15T02:46:49;47.08;;;27.92;;
36441;SDS011;64346;50.820;16.274;2022-10-15T02:49:16;53.75;;;29.10;;
36441;SDS011;64346;50.820;16.274;2022-10-15T02:51:44;52.38;;;25.23;;
36441;SDS011;64346;50.820;16.274;2022-10-15T02:54:11;49.50;;;27.02;;
36441;SDS011;64346;50.820;16.274;2022-10-15T02:56:38;48.90;;;27.90;;
36441;SDS011;64346;50.820;16.274;2022-10-15T02:59:06;50.92;;;27.95;;
36441;SDS011;64346;50.820;16.274;2022-10-15T03:01:35;53.30;;;28.40;;
36441;SDS011;64346;50.820;16.274;2022-10-15T03:04:03;49.38;;;28.77;;
36441;SDS011;64346;50.820;16.274;2022-10-15T03:06:30;50.22;;;30.23;;
36441;SDS011;64346;50.820;16.274;2022-10-15T03:08:57;50.28;;;29.52;;
36441;SDS011;64346;50.820;16.274;2022-10-15T03:11:24;51.30;;;28.50;;
36441;SDS011;64346;50.820;16.274;2022-10-15T03:13:52;47.88;;;28.38;;
36441;SDS011;64346;50.820;16.274;2022-10-15T03:16:19;53.22;;;28.75;;
36441;SDS011;64346;50.820;16.274;2022-10-15T03:18:47;53.15;;;29.60;;
36441;SDS011;64346;50.820;16.274;2022-10-15T03:21:14;49.55;;;28.17;;
36441;SDS011;64346;50.820;16.274;2022-10-15T03:23:41;48.75;;;27.95;;
36441;SDS011;64346;50.820;16.274;2022-10-15T03:26:08;45.45;;;26.23;;
36441;SDS011;64346;50.820;16.274;2022-10-15T03:28:35;47.55;;;27.02;;
36441;SDS011;64346;50.820;16.274;2022-10-15T03:31:03;44.60;;;25.55;;
36441;SDS011;64346;50.820;16.274;2022-10-15T03:33:30;45.40;;;27.65;;
36441;SDS011;64346;50.820;16.274;2022-10-15T03:35:57;46.08;;;26.50;;
36441;SDS011;64346;50.820;16.274;2022-10-15T03:38:24;46.15;;;26.08;;
36441;SDS011;64346;50.820;16.274;2022-10-15T03:40:55;47.40;;;27.40;;
36441;SDS011;64346;50.820;16.274;2022-10-15T03:43:24;50.90;;;26.88;;
36441;SDS011;64346;50.820;16.274;2022-10-15T03:45:54;43.63;;;25.85;;
36441;SDS011;64346;50.820;16.274;2022-10-15T03:48:21;44.67;;;24.80;;
36441;SDS011;64346;50.820;16.274;2022-10-15T03:50:48;40.53;;;22.83;;
36441;SDS011;64346;50.820;16.274;2022-10-15T03:53:18;40.03;;;23.48;;
36441;SDS011;64346;50.820;16.274;2022-10-15T03:55:45;37.25;;;21.63;;
36441;SDS011;64346;50.820;16.274;2022-10-15T03:58:12;38.60;;;21.02;;
36441;SDS011;64346;50.820;16.274;2022-10-15T04:00:43;40.42;;;22.92;;
36441;SDS011;64346;50.820;16.274;2022-10-15T04:03:12;39.72;;;23.73;;
36441;SDS011;64346;50.820;16.274;2022-10-15T04:05:40;39.72;;;23.45;;
36441;SDS011;64346;50.820;16.274;2022-10-15T04:08:07;42.20;;;25.10;;
36441;SDS011;64346;50.820;16.274;2022-10-15T04:10:34;41.25;;;22.77;;
36441;SDS011;64346;50.820;16.274;2022-10-15T04:13:04;41.45;;;24.95;;
36441;SDS011;64346;50.820;16.274;2022-10-15T04:15:31;38.05;;;22.50;;
36441;SDS011;64346;50.820;16.274;2022-10-15T04:17:58;42.55;;;22.77;;
36441;SDS011;64346;50.820;16.274;2022-10-15T04:20:28;40.33;;;24.10;;
36441;SDS011;64346;50.820;16.274;2022-10-15T04:22:55;38.03;;;21.73;;
36441;SDS011;64346;50.820;16.274;2022-10-15T04:25:25;35.90;;;22.15;;
36441;SDS011;64346;50.820;16.274;2022-10-15T04:27:52;35.80;;;21.63;;
36441;SDS011;64346;50.820;16.274;2022-10-15T04:30:19;35.38;;;20.63;;
36441;SDS011;64346;50.820;16.274;2022-10-15T04:32:50;36.75;;;22.85;;
36441;SDS011;64346;50.820;16.274;2022-10-15T04:35:17;41.33;;;23.60;;
36441;SDS011;64346;50.820;16.274;2022-10-15T04:37:45;45.50;;;24.38;;
36441;SDS011;64346;50.820;16.274;2022-10-15T04:40:12;45.70;;;23.50;;
36441;SDS011;64346;50.820;16.274;2022-10-15T04:42:40;41.33;;;24.73;;
36441;SDS011;64346;50.820;16.274;2022-10-15T04:45:07;40.33;;;23.38;;
36441;SDS011;64346;50.820;16.274;2022-10-15T04:47:36;42.75;;;25.67;;
36441;SDS011;64346;50.820;16.274;2022-10-15T04:50:04;46.03;;;25.13;;
36441;SDS011;64346;50.820;16.274;2022-10-15T04:52:34;44.08;;;26.17;;
36441;SDS011;64346;50.820;16.274;2022-10-15T04:55:01;43.35;;;24.63;;
36441;SDS011;64346;50.820;16.274;2022-10-15T04:57:29;46.60;;;25.17;;
36441;SDS011;64346;50.820;16.274;2022-10-15T04:59:57;45.20;;;25.25;;
36441;SDS011;64346;50.820;16.274;2022-10-15T05:02:24;41.58;;;24.15;;
36441;SDS011;64346;50.820;16.274;2022-10-15T05:04:54;43.92;;;24.00;;
36441;SDS011;64346;50.820;16.274;2022-10-15T05:07:21;44.80;;;26.38;;
36441;SDS011;64346;50.820;16.274;2022-10-15T05:09:48;41.67;;;23.13;;
36441;SDS011;64346;50.820;16.274;2022-10-15T05:12:16;39.35;;;22.55;;
36441;SDS011;64346;50.820;16.274;2022-10-15T05:14:45;39.95;;;23.05;;
36441;SDS011;64346;50.820;16.274;2022-10-15T05:17:15;38.28;;;21.58;;
36441;SDS011;64346;50.820;16.274;2022-10-15T05:19:42;40.78;;;23.15;;
36441;SDS011;64346;50.820;16.274;2022-10-15T05:22:09;42.47;;;25.35;;
36441;SDS011;64346;50.820;16.274;2022-10-15T05:24:41;42.28;;;24.90;;
36441;SDS011;64346;50.820;16.274;2022-10-15T05:27:09;44.80;;;25.10;;
36441;SDS011;64346;50.820;16.274;2022-10-15T05:29:36;42.25;;;25.95;;
36441;SDS011;64346;50.820;16.274;2022-10-15T05:32:05;46.15;;;26.23;;
36441;SDS011;64346;50.820;16.274;2022-10-15T05:34:33;47.17;;;27.30;;
36441;SDS011;64346;50.820;16.274;2022-10-15T05:37:00;53.92;;;29.30;;
36441;SDS011;64346;50.820;16.274;2022-10-15T05:39:27;56.10;;;29.70;;
36441;SDS011;64346;50.820;16.274;2022-10-15T05:41:54;52.08;;;29.85;;
36441;SDS011;64346;50.820;16.274;2022-10-15T05:44:21;57.55;;;31.00;;
36441;SDS011;64346;50.820;16.274;2022-10-15T05:46:48;53.63;;;30.50;;
36441;SDS011;64346;50.820;16.274;2022-10-15T05:49:18;54.67;;;30.95;;
36441;SDS011;64346;50.820;16.274;2022-10-15T05:51:45;49.40;;;28.77;;
36441;SDS011;64346;50.820;16.274;2022-10-15T05:54:12;51.65;;;30.15;;
36441;SDS011;64346;50.820;16.274;2022-10-15T05:56:40;49.45;;;28.75;;
36441;SDS011;64346;50.820;16.274;2022-10-15T05:59:07;52.97;;;29.15;;
36441;SDS011;64346;50.820;16.274;2022-10-15T06:01:36;51.50;;;29.63;;
36441;SDS011;64346;50.820;16.274;2022-10-15T06:04:04;52.35;;;28.48;;
36441;SDS011;64346;50.820;16.274;2022-10-15T06:06:31;54.45;;;29.30;;
36441;SDS011;64346;50.820;16.274;2022-10-15T06:08:58;54.45;;;31.63;;
36441;SDS011;64346;50.820;16.274;2022-10-15T06:11:28;54.47;;;31.00;;
36441;SDS011;64346;50.820;16.274;2022-10-15T06:13:55;57.95;;;33.10;;
36441;SDS011;64346;50.820;16.274;2022-10-15T06:16:24;59.25;;;33.42;;
36441;SDS011;64346;50.820;16.274;2022-10-15T06:18:52;55.30;;;31.23;;
36441;SDS011;64346;50.820;16.274;2022-10-15T06:21:21;55.65;;;31.75;;
36441;SDS011;64346;50.820;16.274;2022-10-15T06:23:49;49.85;;;28.27;;
36441;SDS011;64346;50.820;16.274;2022-10-15T06:26:16;46.55;;;28.42;;
36441;SDS011;64346;50.820;16.274;2022-10-15T06:28:48;50.47;;;28.40;;
36441;SDS011;64346;50.820;16.274;2022-10-15T06:31:15;53.17;;;29.10;;
36441;SDS011;64346;50.820;16.274;2022-10-15T06:33:43;49.92;;;28.65;;
36441;SDS011;64346;50.820;16.274;2022-10-15T06:36:10;49.60;;;28.33;;
36441;SDS011;64346;50.820;16.274;2022-10-15T06:38:37;50.50;;;28.83;;
36441;SDS011;64346;50.820;16.274;2022-10-15T06:41:05;50.92;;;28.38;;
36441;SDS011;64346;50.820;16.274;2022-10-15T06:43:33;47.75;;;28.77;;
36441;SDS011;64346;50.820;16.274;2022-10-15T06:46:01;47.47;;;27.73;;
36441;SDS011;64346;50.820;16.274;2022-10-15T06:48:30;46.78;;;27.63;;
36441;SDS011;64346;50.820;16.274;2022-10-15T06:51:00;46.20;;;26.67;;
36441;SDS011;64346;50.820;16.274;2022-10-15T06:53:30;44.45;;;25.55;;
36441;SDS011;64346;50.820;16.274;2022-10-15T06:55:58;46.47;;;26.17;;
36441;SDS011;64346;50.820;16.274;2022-10-15T06:58:27;46.00;;;26.13;;
36441;SDS011;64346;50.820;16.274;2022-10-15T07:01:01;42.38;;;24.73;;
36441;SDS011;64346;50.820;16.274;2022-10-15T07:03:31;40.90;;;23.40;;
36441;SDS011;64346;50.820;16.274;2022-10-15T07:06:05;43.45;;;23.95;;
36441;SDS011;64346;50.820;16.274;2022-10-15T07:08:35;43.22;;;24.38;;
36441;SDS011;64346;50.820;16.274;2022-10-15T07:11:06;39.40;;;24.75;;
36441;SDS011;64346;50.820;16.274;2022-10-15T07:13:34;39.28;;;22.88;;
36441;SDS011;64346;50.820;16.274;2022-10-15T07:16:04;50.08;;;23.90;;
36441;SDS011;64346;50.820;16.274;2022-10-15T07:18:36;41.03;;;24.23;;
36441;SDS011;64346;50.820;16.274;2022-10-15T07:21:08;39.30;;;24.17;;
36441;SDS011;64346;50.820;16.274;2022-10-15T07:23:43;41.80;;;22.15;;
36441;SDS011;64346;50.820;16.274;2022-10-15T07:26:13;35.78;;;22.38;;
36441;SDS011;64346;50.820;16.274;2022-10-15T07:28:40;36.55;;;20.55;;
36441;SDS011;64346;50.820;16.274;2022-10-15T07:31:09;31.35;;;19.48;;
36441;SDS011;64346;50.820;16.274;2022-10-15T07:33:41;32.17;;;18.10;;
36441;SDS011;64346;50.820;16.274;2022-10-15T07:36:09;31.05;;;19.13;;
36441;SDS011;64346;50.820;16.274;2022-10-15T07:38:37;28.45;;;18.15;;
36441;SDS011;64346;50.820;16.274;2022-10-15T07:41:05;30.90;;;18.73;;
36441;SDS011;64346;50.820;16.274;2022-10-15T07:43:33;35.85;;;19.90;;
36441;SDS011;64346;50.820;16.274;2022-10-15T07:46:02;37.28;;;21.00;;
36441;SDS011;64346;50.820;16.274;2022-10-15T07:48:30;31.13;;;19.40;;
36441;SDS011;64346;50.820;16.274;2022-10-15T07:51:04;35.70;;;19.65;;
36441;SDS011;64346;50.820;16.274;2022-10-15T07:56:10;26.00;;;15.98;;
36441;SDS011;64346;50.820;16.274;2022-10-15T07:58:42;26.92;;;16.52;;
36441;SDS011;64346;50.820;16.274;2022-10-15T08:01:09;25.85;;;15.68;;
36441;SDS011;64346;50.820;16.274;2022-10-15T08:03:39;27.38;;;16.45;;
36441;SDS011;64346;50.820;16.274;2022-10-15T08:06:07;28.35;;;16.73;;
36441;SDS011;64346;50.820;16.274;2022-10-15T08:08:34;26.60;;;15.95;;
36441;SDS011;64346;50.820;16.274;2022-10-15T08:11:06;26.13;;;14.68;;
36441;SDS011;64346;50.820;16.274;2022-10-15T08:13:35;23.25;;;14.13;;
36441;SDS011;64346;50.820;16.274;2022-10-15T08:16:05;21.13;;;13.85;;
36441;SDS011;64346;50.820;16.274;2022-10-15T08:18:32;21.05;;;12.52;;
36441;SDS011;64346;50.820;16.274;2022-10-15T08:20:59;21.00;;;12.40;;
36441;SDS011;64346;50.820;16.274;2022-10-15T08:23:30;20.13;;;11.45;;
36441;SDS011;64346;50.820;16.274;2022-10-15T08:25:58;22.60;;;11.82;;
36441;SDS011;64346;50.820;16.274;2022-10-15T08:28:27;18.80;;;11.40;;
36441;SDS011;64346;50.820;16.274;2022-10-15T08:30:58;23.45;;;12.63;;
36441;SDS011;64346;50.820;16.274;2022-10-15T08:33:32;17.48;;;10.52;;
36441;SDS011;64346;50.820;16.274;2022-10-15T08:36:03;17.98;;;9.40;;
36441;SDS011;64346;50.820;16.274;2022-10-15T08:38:31;16.60;;;8.73;;
36441;SDS011;64346;50.820;16.274;2022-10-15T08:41:04;19.15;;;10.07;;
36441;SDS011;64346;50.820;16.274;2022-10-15T08:43:40;17.73;;;9.38;;
36441;SDS011;64346;50.820;16.274;2022-10-15T08:46:12;17.10;;;8.88;;
36441;SDS011;64346;50.820;16.274;2022-10-15T08:49:04;15.23;;;7.85;;
36441;SDS011;64346;50.820;16.274;2022-10-15T08:51:45;15.25;;;7.70;;
36441;SDS011;64346;50.820;16.274;2022-10-15T08:54:17;15.93;;;8.23;;
36441;SDS011;64346;50.820;16.274;2022-10-15T08:56:49;13.50;;;7.75;;
36441;SDS011;64346;50.820;16.274;2022-10-15T08:59:45;10.27;;;5.28;;
36441;SDS011;64346;50.820;16.274;2022-10-15T09:02:38;11.50;;;5.20;;
36441;SDS011;64346;50.820;16.274;2022-10-15T09:13:29;8.60;;;3.78;;
36441;SDS011;64346;50.820;16.274;2022-10-15T09:16:25;7.45;;;3.47;;
36441;SDS011;64346;50.820;16.274;2022-10-15T09:18:58;9.20;;;3.80;;
36441;SDS011;64346;50.820;16.274;2022-10-15T09:21:29;8.70;;;3.55;;
36441;SDS011;64346;50.820;16.274;2022-10-15T09:24:01;7.47;;;3.60;;
36441;SDS011;64346;50.820;16.274;2022-10-15T09:26:42;6.80;;;3.67;;
36441;SDS011;64346;50.820;16.274;2022-10-15T09:29:21;7.47;;;3.35;;
36441;SDS011;64346;50.820;16.274;2022-10-15T09:37:28;10.13;;;4.90;;
36441;SDS011;64346;50.820;16.274;2022-10-15T09:42:35;11.65;;;6.47;;
36441;SDS011;64346;50.820;16.274;2022-10-15T09:45:08;10.70;;;5.40;;
36441;SDS011;64346;50.820;16.274;2022-10-15T09:47:38;9.97;;;4.97;;
36441;SDS011;64346;50.820;16.274;2022-10-15T09:50:08;11.70;;;5.95;;
36441;SDS011;64346;50.820;16.274;2022-10-15T09:58:05;10.85;;;5.40;;
36441;SDS011;64346;50.820;16.274;2022-10-15T10:00:55;11.98;;;6.28;;
36441;SDS011;64346;50.820;16.274;2022-10-15T10:03:28;12.48;;;6.35;;
36441;SDS011;64346;50.820;16.274;2022-10-15T10:11:17;12.45;;;7.20;;
36441;SDS011;64346;50.820;16.274;2022-10-15T10:13:58;14.45;;;7.30;;
36441;SDS011;64346;50.820;16.274;2022-10-15T10:16:26;14.48;;;7.30;;
36441;SDS011;64346;50.820;16.274;2022-10-15T10:19:01;11.88;;;7.05;;
36441;SDS011;64346;50.820;16.274;2022-10-15T10:21:30;13.10;;;7.47;;
36441;SDS011;64346;50.820;16.274;2022-10-15T10:24:46;11.57;;;7.22;;
36441;SDS011;64346;50.820;16.274;2022-10-15T10:26:53;13.57;;;8.48;;
36441;SDS011;64346;50.820;16.274;2022-10-15T10:29:23;14.90;;;9.15;;
36441;SDS011;64346;50.820;16.274;2022-10-15T10:32:22;17.20;;;10.25;;
36441;SDS011;64346;50.820;16.274;2022-10-15T10:34:49;23.58;;;15.05;;
36441;SDS011;64346;50.820;16.274;2022-10-15T10:37:19;25.52;;;15.75;;
36441;SDS011;64346;50.820;16.274;2022-10-15T10:39:56;24.85;;;15.88;;
36441;SDS011;64346;50.820;16.274;2022-10-15T10:42:26;23.63;;;16.38;;
36441;SDS011;64346;50.820;16.274;2022-10-15T10:45:15;40.30;;;18.20;;
36441;SDS011;64346;50.820;16.274;2022-10-15T10:47:48;30.05;;;18.85;;
36441;SDS011;64346;50.820;16.274;2022-10-15T10:50:32;28.25;;;18.00;;
36441;SDS011;64346;50.820;16.274;2022-10-15T10:53:21;30.80;;;18.58;;
36441;SDS011;64346;50.820;16.274;2022-10-15T10:55:51;27.35;;;18.05;;
36441;SDS011;64346;50.820;16.274;2022-10-15T10:58:21;28.88;;;19.70;;
36441;SDS011;64346;50.820;16.274;2022-10-15T11:00:52;29.02;;;20.50;;
36441;SDS011;64346;50.820;16.274;2022-10-15T11:03:31;30.95;;;21.02;;
36441;SDS011;64346;50.820;16.274;2022-10-15T11:08:33;32.35;;;21.38;;
36441;SDS011;64346;50.820;16.274;2022-10-15T11:19:54;39.15;;;24.27;;
36441;SDS011;64346;50.820;16.274;2022-10-15T11:23:18;38.88;;;23.95;;
36441;SDS011;64346;50.820;16.274;2022-10-15T11:31:32;34.90;;;22.70;;
36441;SDS011;64346;50.820;16.274;2022-10-15T11:40:20;38.55;;;24.23;;
36441;SDS011;64346;50.820;16.274;2022-10-15T11:48:01;35.33;;;23.83;;
36441;SDS011;64346;50.820;16.274;2022-10-15T11:50:40;33.90;;;22.63;;
36441;SDS011;64346;50.820;16.274;2022-10-15T11:53:47;34.22;;;22.50;;
36441;SDS011;64346;50.820;16.274;2022-10-15T11:59:09;34.35;;;24.05;;
36441;SDS011;64346;50.820;16.274;2022-10-15T12:01:46;36.60;;;23.40;;
36441;SDS011;64346;50.820;16.274;2022-10-15T12:06:54;35.63;;;23.10;;
36441;SDS011;64346;50.820;16.274;2022-10-15T12:09:25;33.58;;;23.13;;
36441;SDS011;64346;50.820;16.274;2022-10-15T12:14:37;34.05;;;22.33;;
36441;SDS011;64346;50.820;16.274;2022-10-15T12:28:03;32.08;;;22.00;;
36441;SDS011;64346;50.820;16.274;2022-10-15T12:31:02;38.80;;;24.15;;
36441;SDS011;64346;50.820;16.274;2022-10-15T12:33:35;38.40;;;25.85;;
36441;SDS011;64346;50.820;16.274;2022-10-15T12:39:03;37.23;;;24.27;;
36441;SDS011;64346;50.820;16.274;2022-10-15T12:41:55;35.95;;;24.02;;
36441;SDS011;64346;50.820;16.274;2022-10-15T12:46:54;34.25;;;24.02;;
36441;SDS011;64346;50.820;16.274;2022-10-15T12:51:56;38.53;;;25.05;;
36441;SDS011;64346;50.820;16.274;2022-10-15T12:54:34;36.72;;;23.52;;
36441;SDS011;64346;50.820;16.274;2022-10-15T13:00:01;39.53;;;26.98;;
36441;SDS011;64346;50.820;16.274;2022-10-15T13:02:47;38.33;;;25.27;;
36441;SDS011;64346;50.820;16.274;2022-10-15T13:07:57;36.22;;;24.40;;
36441;SDS011;64346;50.820;16.274;2022-10-15T13:10:33;37.08;;;24.85;;
36441;SDS011;64346;50.820;16.274;2022-10-15T13:13:02;37.58;;;25.08;;
36441;SDS011;64346;50.820;16.274;2022-10-15T13:15:31;37.95;;;25.67;;
36441;SDS011;64346;50.820;16.274;2022-10-15T13:18:03;35.78;;;23.50;;
36441;SDS011;64346;50.820;16.274;2022-10-15T13:20:41;36.65;;;23.63;;
36441;SDS011;64346;50.820;16.274;2022-10-15T13:23:17;36.63;;;22.58;;
36441;SDS011;64346;50.820;16.274;2022-10-15T13:28:38;30.45;;;20.02;;
36441;SDS011;64346;50.820;16.274;2022-10-15T13:31:28;28.63;;;19.30;;
36441;SDS011;64346;50.820;16.274;2022-10-15T13:33:58;28.50;;;19.30;;
36441;SDS011;64346;50.820;16.274;2022-10-15T13:36:44;26.08;;;17.02;;
36441;SDS011;64346;50.820;16.274;2022-10-15T13:42:13;28.30;;;18.83;;
36441;SDS011;64346;50.820;16.274;2022-10-15T13:44:42;27.25;;;18.00;;
36441;SDS011;64346;50.820;16.274;2022-10-15T13:53:10;27.75;;;18.67;;
36441;SDS011;64346;50.820;16.274;2022-10-15T13:55:43;26.67;;;17.40;;
36441;SDS011;64346;50.820;16.274;2022-10-15T14:03:32;23.77;;;16.35;;
36441;SDS011;64346;50.820;16.274;2022-10-15T14:08:51;20.35;;;14.13;;
36441;SDS011;64346;50.820;16.274;2022-10-15T14:11:23;20.70;;;14.50;;
36441;SDS011;64346;50.820;16.274;2022-10-15T14:13:53;21.67;;;14.18;;
36441;SDS011;64346;50.820;16.274;2022-10-15T14:16:42;22.77;;;15.32;;
36441;SDS011;64346;50.820;16.274;2022-10-15T14:19:15;22.60;;;15.30;;
36441;SDS011;64346;50.820;16.274;2022-10-15T14:21:47;21.75;;;14.18;;
36441;SDS011;64346;50.820;16.274;2022-10-15T14:24:18;21.70;;;14.23;;
36441;SDS011;64346;50.820;16.274;2022-10-15T14:26:51;18.45;;;11.93;;
36441;SDS011;64346;50.820;16.274;2022-10-15T14:29:25;19.65;;;12.68;;
36441;SDS011;64346;50.820;16.274;2022-10-15T14:32:01;19.30;;;11.45;;
36441;SDS011;64346;50.820;16.274;2022-10-15T14:34:38;20.27;;;12.98;;
36441;SDS011;64346;50.820;16.274;2022-10-15T14:42:38;19.95;;;12.40;;
36441;SDS011;64346;50.820;16.274;2022-10-15T14:45:12;19.17;;;11.52;;
36441;SDS011;64346;50.820;16.274;2022-10-15T14:47:43;17.08;;;11.15;;
36441;SDS011;64346;50.820;16.274;2022-10-15T14:50:16;19.63;;;11.68;;
36441;SDS011;64346;50.820;16.274;2022-10-15T14:52:48;17.50;;;11.20;;
36441;SDS011;64346;50.820;16.274;2022-10-15T14:57:50;18.23;;;11.65;;
36441;SDS011;64346;50.820;16.274;2022-10-15T15:00:25;16.58;;;10.70;;
36441;SDS011;64346;50.820;16.274;2022-10-15T15:02:56;17.83;;;12.50;;
36441;SDS011;64346;50.820;16.274;2022-10-15T15:05:25;18.33;;;10.90;;
36441;SDS011;64346;50.820;16.274;2022-10-15T15:07:56;17.95;;;11.13;;
36441;SDS011;64346;50.820;16.274;2022-10-15T15:10:26;20.05;;;11.10;;
36441;SDS011;64346;50.820;16.274;2022-10-15T15:12:54;16.88;;;10.70;;
36441;SDS011;64346;50.820;16.274;2022-10-15T15:15:23;18.08;;;11.82;;
36441;SDS011;64346;50.820;16.274;2022-10-15T15:17:51;21.35;;;13.00;;
36441;SDS011;64346;50.820;16.274;2022-10-15T15:20:19;18.73;;;12.10;;
36441;SDS011;64346;50.820;16.274;2022-10-15T15:22:50;18.05;;;11.30;;
36441;SDS011;64346;50.820;16.274;2022-10-15T15:25:20;18.33;;;11.25;;
36441;SDS011;64346;50.820;16.274;2022-10-15T15:27:54;19.23;;;11.60;;
36441;SDS011;64346;50.820;16.274;2022-10-15T15:30:23;16.77;;;10.35;;
36441;SDS011;64346;50.820;16.274;2022-10-15T15:32:51;18.42;;;11.23;;
36441;SDS011;64346;50.820;16.274;2022-10-15T15:40:21;14.15;;;8.77;;
36441;SDS011;64346;50.820;16.274;2022-10-15T15:42:49;14.23;;;7.90;;
36441;SDS011;64346;50.820;16.274;2022-10-15T15:45:18;14.95;;;8.48;;
36441;SDS011;64346;50.820;16.274;2022-10-15T15:47:48;16.08;;;8.88;;
36441;SDS011;64346;50.820;16.274;2022-10-15T15:50:19;15.73;;;8.82;;
36441;SDS011;64346;50.820;16.274;2022-10-15T15:52:47;15.63;;;8.95;;
36441;SDS011;64346;50.820;16.274;2022-10-15T15:55:14;13.65;;;7.93;;
36441;SDS011;64346;50.820;16.274;2022-10-15T15:57:42;14.98;;;8.95;;
36441;SDS011;64346;50.820;16.274;2022-10-15T16:00:10;14.68;;;7.60;;
36441;SDS011;64346;50.820;16.274;2022-10-15T16:02:38;14.10;;;8.38;;
36441;SDS011;64346;50.820;16.274;2022-10-15T16:05:08;15.43;;;7.97;;
36441;SDS011;64346;50.820;16.274;2022-10-15T16:07:40;15.32;;;8.18;;
36441;SDS011;64346;50.820;16.274;2022-10-15T16:10:08;12.45;;;7.18;;
36441;SDS011;64346;50.820;16.274;2022-10-15T16:12:36;12.95;;;7.10;;
36441;SDS011;64346;50.820;16.274;2022-10-15T16:15:08;13.15;;;7.47;;
36441;SDS011;64346;50.820;16.274;2022-10-15T16:17:43;14.75;;;8.45;;
36441;SDS011;64346;50.820;16.274;2022-10-15T16:20:10;14.13;;;8.25;;
36441;SDS011;64346;50.820;16.274;2022-10-15T16:22:38;14.23;;;8.25;;
36441;SDS011;64346;50.820;16.274;2022-10-15T16:25:05;14.25;;;8.30;;
36441;SDS011;64346;50.820;16.274;2022-10-15T16:27:33;15.75;;;9.70;;
36441;SDS011;64346;50.820;16.274;2022-10-15T16:30:01;16.85;;;9.73;;
36441;SDS011;64346;50.820;16.274;2022-10-15T16:32:29;18.13;;;10.20;;
36441;SDS011;64346;50.820;16.274;2022-10-15T16:34:57;15.68;;;10.00;;
36441;SDS011;64346;50.820;16.274;2022-10-15T16:37:24;16.65;;;9.75;;
36441;SDS011;64346;50.820;16.274;2022-10-15T16:39:54;17.13;;;10.93;;
36441;SDS011;64346;50.820;16.274;2022-10-15T16:42:21;17.27;;;9.90;;
36441;SDS011;64346;50.820;16.274;2022-10-15T16:44:53;17.88;;;9.50;;
36441;SDS011;64346;50.820;16.274;2022-10-15T16:47:23;16.40;;;10.38;;
36441;SDS011;64346;50.820;16.274;2022-10-15T16:49:50;15.43;;;9.90;;
36441;SDS011;64346;50.820;16.274;2022-10-15T16:52:22;16.95;;;9.88;;
36441;SDS011;64346;50.820;16.274;2022-10-15T16:54:50;14.27;;;8.45;;
36441;SDS011;64346;50.820;16.274;2022-10-15T16:57:17;15.88;;;8.45;;
36441;SDS011;64346;50.820;16.274;2022-10-15T16:59:44;14.65;;;9.20;;
36441;SDS011;64346;50.820;16.274;2022-10-15T17:02:12;16.63;;;8.80;;
36441;SDS011;64346;50.820;16.274;2022-10-15T17:04:39;16.20;;;9.30;;
36441;SDS011;64346;50.820;16.274;2022-10-15T17:07:11;16.55;;;9.50;;
36441;SDS011;64346;50.820;16.274;2022-10-15T17:09:41;17.60;;;9.77;;
36441;SDS011;64346;50.820;16.274;2022-10-15T17:12:09;16.60;;;9.68;;